createdAt,value
2018-06-14T00:01:01.556Z,80.38
2018-06-14T00:02:11.639Z,80.28
2018-06-14T00:03:21.719Z,79.99
2018-06-14T00:04:31.826Z,80.47
2018-06-14T00:05:41.915Z,80.28
2018-06-14T00:06:51.976Z,80.38
2018-06-14T00:08:02.056Z,80.47
2018-06-14T00:09:12.115Z,80.38
2018-06-14T00:10:22.199Z,80.47
2018-06-14T00:11:32.281Z,80.38
2018-06-14T00:12:42.345Z,80.19
2018-06-14T00:13:52.421Z,80.19
2018-06-14T00:15:02.227Z,80.19
2018-06-14T00:16:12.049Z,80.28
2018-06-14T00:17:21.984Z,80.28
2018-06-14T00:18:31.618Z,80.19
2018-06-14T00:19:41.439Z,80.38
2018-06-14T00:20:51.257Z,80.28
2018-06-14T00:22:01.348Z,80.19
2018-06-14T00:23:11.453Z,80.28
2018-06-14T00:24:21.519Z,80.28
2018-06-14T00:25:31.589Z,80.19
2018-06-14T00:26:41.672Z,80.38
2018-06-14T00:27:51.763Z,80.28
2018-06-14T00:29:01.847Z,80.28
2018-06-14T00:30:11.649Z,80.47
2018-06-14T00:31:21.747Z,80.28
2018-06-14T00:32:31.824Z,80.38
2018-06-14T00:33:41.897Z,80.19
2018-06-14T00:34:52.015Z,80.19
2018-06-14T00:36:02.118Z,80.34
2018-06-14T00:37:12.184Z,80.15
2018-06-14T00:38:22.256Z,80.53
2018-06-14T00:39:32.342Z,80.53
2018-06-14T00:40:42.409Z,80.15
2018-06-14T00:41:52.505Z,80.43
2018-06-14T00:43:02.623Z,80.15
2018-06-14T00:44:12.688Z,80.15
2018-06-14T00:45:22.768Z,80.24
2018-06-14T00:46:32.575Z,80.15
2018-06-14T00:47:42.663Z,80.15
2018-06-14T00:48:52.474Z,80.34
2018-06-14T00:50:02.563Z,80.43
2018-06-14T00:51:12.636Z,80.24
2018-06-14T00:52:22.721Z,80.15
2018-06-14T00:53:32.784Z,80.63
2018-06-14T00:54:42.581Z,80.24
2018-06-14T00:55:52.675Z,80.38
2018-06-14T00:57:02.751Z,80.28
2018-06-14T00:58:12.877Z,79.76
2018-06-14T00:59:22.931Z,80.15
2018-06-14T01:00:33.016Z,80.15
2018-06-14T01:01:43.320Z,80.38
2018-06-14T01:02:53.383Z,80.34
2018-06-14T01:04:03.471Z,80.38
2018-06-14T01:05:13.536Z,80.53
2018-06-14T01:06:23.347Z,80.24
2018-06-14T01:07:33.178Z,80.34
2018-06-14T01:08:42.990Z,80.24
2018-06-14T01:09:52.808Z,80.43
2018-06-14T01:11:02.639Z,80.34
2018-06-14T01:12:12.448Z,80.34
2018-06-14T01:13:22.513Z,80.43
2018-06-14T01:14:32.586Z,80.43
2018-06-14T01:15:42.660Z,80.34
2018-06-14T01:16:52.487Z,80.82
2018-06-14T01:18:02.552Z,80.47
2018-06-14T01:19:12.619Z,80.53
2018-06-14T01:20:22.693Z,80.53
2018-06-14T01:21:32.767Z,80.73
2018-06-14T01:22:42.874Z,80.34
2018-06-14T01:23:52.678Z,80.24
2018-06-14T01:25:02.792Z,80.34
2018-06-14T01:26:12.853Z,80.53
2018-06-14T01:27:22.984Z,80.43
2018-06-14T01:28:33.056Z,80.53
2018-06-14T01:29:42.888Z,80.34
2018-06-14T01:30:52.685Z,80.57
2018-06-14T01:32:02.510Z,80.34
2018-06-14T01:33:12.627Z,80.34
2018-06-14T01:34:22.437Z,80.63
2018-06-14T01:35:32.525Z,80.63
2018-06-14T01:36:42.335Z,80.34
2018-06-14T01:37:52.408Z,80.53
2018-06-14T01:39:02.515Z,80.24
2018-06-14T01:40:12.079Z,80.63
2018-06-14T01:41:22.171Z,80.34
2018-06-14T01:42:32.258Z,80.43
2018-06-14T01:43:42.349Z,80.34
2018-06-14T01:44:52.436Z,80.43
2018-06-14T01:46:02.527Z,80.24
2018-06-14T01:47:12.340Z,80.34
2018-06-14T01:48:22.413Z,80.34
2018-06-14T01:49:32.225Z,80.24
2018-06-14T01:50:42.356Z,80.24
2018-06-14T01:51:52.444Z,80.82
2018-06-14T01:53:02.523Z,80.43
2018-06-14T01:54:11.812Z,80.24
2018-06-14T01:55:21.881Z,80.43
2018-06-14T01:56:31.476Z,80.34
2018-06-14T01:57:41.551Z,80.43
2018-06-14T01:58:51.605Z,80.34
2018-06-14T02:00:01.677Z,80.24
2018-06-14T02:01:11.484Z,80.34
2018-06-14T02:02:21.286Z,80.43
2018-06-14T02:03:31.364Z,80.34
2018-06-14T02:04:41.201Z,80.24
2018-06-14T02:05:51.008Z,80.43
2018-06-14T02:07:01.068Z,80.43
2018-06-14T02:08:11.136Z,80.43
2018-06-14T02:09:21.211Z,80.15
2018-06-14T02:10:31.023Z,80.43
2018-06-14T02:11:41.101Z,80.53
2018-06-14T02:12:51.165Z,80.24
2018-06-14T02:14:00.977Z,80.34
2018-06-14T02:15:10.780Z,80.53
2018-06-14T02:16:20.841Z,80.43
2018-06-14T02:17:30.907Z,80.24
2018-06-14T02:18:40.976Z,80.24
2018-06-14T02:19:51.042Z,80.15
2018-06-14T02:21:00.863Z,80.24
2018-06-14T02:22:10.933Z,80.24
2018-06-14T02:23:20.998Z,80.24
2018-06-14T02:24:31.075Z,80.43
2018-06-14T02:25:40.918Z,80.43
2018-06-14T02:26:50.997Z,80.05
2018-06-14T02:28:00.554Z,80.91
2018-06-14T02:29:10.616Z,80.24
2018-06-14T02:30:20.693Z,80.34
2018-06-14T02:31:30.777Z,80.24
2018-06-14T02:32:40.869Z,80.05
2018-06-14T02:33:50.965Z,80.05
2018-06-14T02:35:01.060Z,80.24
2018-06-14T02:36:11.127Z,80.05
2018-06-14T02:37:21.198Z,80.24
2018-06-14T02:38:31.270Z,80.73
2018-06-14T02:39:41.082Z,80.82
2018-06-14T02:40:51.155Z,80.82
2018-06-14T02:42:00.981Z,80.82
2018-06-14T02:43:11.102Z,80.63
2018-06-14T02:44:21.188Z,80.63
2018-06-14T02:45:31.030Z,80.82
2018-06-14T02:46:41.098Z,80.73
2018-06-14T02:47:50.928Z,80.73
2018-06-14T02:49:01.083Z,80.53
2018-06-14T02:50:10.897Z,80.24
2018-06-14T02:51:20.693Z,80.34
2018-06-14T02:52:30.769Z,80.73
2018-06-14T02:53:40.842Z,80.63
2018-06-14T02:54:50.901Z,80.82
2018-06-14T02:56:00.995Z,80.82
2018-06-14T02:57:10.798Z,81.01
2018-06-14T02:58:20.595Z,80.91
2018-06-14T02:59:30.675Z,80.82
2018-06-14T03:00:40.506Z,80.63
2018-06-14T03:01:50.578Z,80.82
2018-06-14T03:03:00.651Z,80.73
2018-06-14T03:34:48.776Z,74.66
2018-06-14T03:35:58.842Z,75.33
2018-06-14T03:37:08.921Z,76.1
2018-06-14T03:38:18.987Z,76.96
2018-06-14T03:39:29.064Z,77.63
2018-06-14T03:40:39.182Z,78.11
2018-06-14T03:41:49.406Z,78.97
2018-06-14T03:42:59.481Z,78.92
2018-06-14T03:44:09.291Z,79.01
2018-06-14T03:45:19.110Z,79.39
2018-06-14T03:46:29.294Z,79.78
2018-06-14T03:47:39.467Z,79.3
2018-06-14T03:48:49.543Z,79.59
2018-06-14T03:49:59.609Z,79.72
2018-06-14T03:51:09.416Z,79.53
2018-06-14T03:52:18.961Z,80.01
2018-06-14T03:53:29.039Z,79.82
2018-06-14T03:54:39.112Z,79.82
2018-06-14T03:55:49.177Z,80.05
2018-06-14T03:56:59.237Z,79.86
2018-06-14T03:58:09.046Z,80.05
2018-06-14T03:59:19.144Z,80.15
2018-06-14T04:00:29.242Z,79.86
2018-06-14T04:01:39.076Z,79.47
2018-06-14T04:02:48.884Z,79.96
2018-06-14T04:03:58.841Z,79.99
2018-06-14T04:05:09.312Z,79.99
2018-06-14T04:06:19.158Z,79.9
2018-06-14T04:07:28.969Z,79.99
2018-06-14T04:08:38.776Z,79.9
2018-06-14T04:09:48.856Z,79.99
2018-06-14T04:10:58.928Z,79.9
2018-06-14T04:12:09.001Z,79.71
2018-06-14T04:13:19.063Z,80.19
2018-06-14T04:14:28.890Z,80.09
2018-06-14T04:15:39.026Z,79.99
2018-06-14T04:16:49.100Z,80.09
2018-06-14T04:17:59.181Z,79.8
2018-06-14T04:19:09.270Z,79.71
2018-06-14T04:20:19.404Z,79.61
2018-06-14T04:21:29.057Z,79.94
2018-06-14T04:22:39.127Z,79.71
2018-06-14T04:23:49.198Z,79.65
2018-06-14T04:24:59.261Z,79.94
2018-06-14T04:26:09.078Z,79.84
2018-06-14T04:27:19.162Z,79.84
2018-06-14T04:28:29.415Z,79.84
2018-06-14T04:29:39.485Z,79.75
2018-06-14T04:30:49.301Z,79.84
2018-06-14T04:31:59.398Z,79.94
2018-06-14T04:33:09.524Z,79.75
2018-06-14T04:34:19.332Z,79.75
2018-06-14T04:35:29.421Z,79.46
2018-06-14T04:36:39.512Z,79.65
2018-06-14T04:37:49.331Z,79.27
2018-06-14T04:38:59.387Z,79.3
2018-06-14T04:40:09.485Z,79.36
2018-06-14T04:41:19.541Z,78.83
2018-06-14T04:42:29.625Z,79.3
2018-06-14T04:43:39.704Z,79.3
2018-06-14T04:44:49.518Z,79.02
2018-06-14T04:45:59.678Z,79.11
2018-06-14T04:47:09.808Z,79.4
2018-06-14T04:48:19.625Z,79.3
2018-06-14T04:49:29.703Z,79.4
2018-06-14T04:50:39.773Z,79.3
2018-06-14T04:51:49.587Z,79.5
2018-06-14T04:52:59.137Z,79.5
2018-06-14T04:54:09.219Z,79.5
2018-06-14T04:55:19.043Z,79.3
2018-06-14T04:56:29.131Z,78.96
2018-06-14T04:57:39.196Z,78.96
2018-06-14T04:58:49.264Z,78.96
2018-06-14T04:59:59.320Z,79.05
2018-06-14T05:01:09.136Z,79.15
2018-06-14T05:02:19.317Z,79.25
2018-06-14T05:03:29.588Z,79.15
2018-06-14T05:04:39.662Z,78.96
2018-06-14T05:05:49.465Z,78.86
2018-06-14T05:06:59.549Z,78.77
2018-06-14T05:08:09.610Z,78.96
2018-06-14T05:09:19.425Z,78.86
2018-06-14T05:10:29.260Z,78.96
2018-06-14T05:11:39.085Z,79.1
2018-06-14T05:12:49.160Z,79.25
2018-06-14T05:13:58.979Z,79.28
2018-06-14T05:15:09.052Z,79.38
2018-06-14T05:16:19.114Z,78.81
2018-06-14T05:17:29.196Z,78.42
2018-06-14T05:18:39.283Z,78.42
2018-06-14T05:19:49.351Z,78.23
2018-06-14T05:20:59.441Z,78.52
2018-06-14T05:22:09.530Z,78.71
2018-06-14T05:23:19.628Z,78.71
2018-06-14T05:24:29.785Z,78.71
2018-06-14T05:25:39.861Z,78.94
2018-06-14T05:26:49.946Z,79.03
2018-06-14T05:27:59.768Z,78.94
2018-06-14T05:29:09.840Z,78.94
2018-06-14T05:30:19.917Z,78.75
2018-06-14T05:31:30.032Z,79.13
2018-06-14T05:32:40.113Z,78.75
2018-06-14T05:33:50.370Z,78.81
2018-06-14T05:35:00.448Z,78.75
2018-06-14T05:36:10.273Z,78.85
2018-06-14T05:37:20.369Z,78.75
2018-06-14T05:38:30.461Z,78.56
2018-06-14T05:39:40.552Z,78.75
2018-06-14T05:40:50.634Z,78.94
2018-06-14T05:42:00.717Z,78.46
2018-06-14T05:43:10.552Z,78.75
2018-06-14T05:44:20.643Z,78.46
2018-06-14T05:45:30.718Z,78.36
2018-06-14T05:46:40.800Z,78.65
2018-06-14T05:47:50.500Z,79.52
2018-06-14T05:49:00.172Z,79.19
2018-06-14T05:50:10.000Z,79.1
2018-06-14T05:51:20.082Z,78.9
2018-06-14T05:52:29.905Z,79.28
2018-06-14T05:53:39.985Z,79.19
2018-06-14T05:54:50.107Z,79.67
2018-06-14T05:56:00.194Z,79.1
2018-06-14T05:57:10.430Z,79.48
2018-06-14T05:58:20.493Z,79.58
2018-06-14T05:59:30.563Z,79
2018-06-14T06:00:40.164Z,79.1
2018-06-14T06:01:49.971Z,79.19
2018-06-14T06:02:59.780Z,78.9
2018-06-14T06:04:09.845Z,78.9
2018-06-14T06:05:19.913Z,78.81
2018-06-14T06:06:29.988Z,79.19
2018-06-14T06:07:39.791Z,79.19
2018-06-14T06:08:49.878Z,79.58
2018-06-14T06:09:59.690Z,78.61
2018-06-14T06:11:09.756Z,78.52
2018-06-14T06:12:19.879Z,78.9
2018-06-14T06:13:29.431Z,78.42
2018-06-14T06:14:39.499Z,78.75
2018-06-14T06:15:49.332Z,78.46
2018-06-14T06:16:59.418Z,78.46
2018-06-14T06:18:09.220Z,78.75
2018-06-14T06:19:19.297Z,78.94
2018-06-14T06:20:29.380Z,78.94
2018-06-14T06:21:39.480Z,78.85
2018-06-14T06:22:48.771Z,78.75
2018-06-14T06:23:58.646Z,78.61
2018-06-14T06:25:08.745Z,78.65
2018-06-14T06:26:19.055Z,78.75
2018-06-14T06:27:29.504Z,78.46
2018-06-14T06:28:39.568Z,78.85
2018-06-14T06:29:49.697Z,78.75
2018-06-14T06:30:59.780Z,79.03
2018-06-14T06:32:09.850Z,78.56
2018-06-14T06:33:20.090Z,78.27
2018-06-14T06:34:30.705Z,78.75
2018-06-14T06:35:40.824Z,78.46
2018-06-14T06:36:50.909Z,78.75
2018-06-14T06:38:00.725Z,78.65
2018-06-14T06:39:10.792Z,78.75
2018-06-14T06:40:20.864Z,78.46
2018-06-14T06:41:30.686Z,78.65
2018-06-14T06:42:40.521Z,78.85
2018-06-14T06:43:50.607Z,78.94
2018-06-14T06:45:00.444Z,78.65
2018-06-14T06:46:09.771Z,78.56
2018-06-14T06:47:19.847Z,78.56
2018-06-14T06:48:29.918Z,78.46
2018-06-14T06:49:40.022Z,78.11
2018-06-14T06:50:50.133Z,77.83
2018-06-14T06:52:00.207Z,78.11
2018-06-14T06:53:10.394Z,78.02
2018-06-14T06:54:20.593Z,78.02
2018-06-14T06:55:30.685Z,78.21
2018-06-14T06:56:40.494Z,78.11
2018-06-14T06:57:50.324Z,77.92
2018-06-14T06:59:00.712Z,77.92
2018-06-14T07:00:10.515Z,78.31
2018-06-14T07:01:20.315Z,78.25
2018-06-14T07:02:30.121Z,78.06
2018-06-14T07:03:40.178Z,77.92
2018-06-14T07:04:50.031Z,78.21
2018-06-14T07:05:59.966Z,78.11
2018-06-14T07:07:10.102Z,78.02
2018-06-14T07:08:20.196Z,77.92
2018-06-14T07:09:30.287Z,77.92
2018-06-14T07:10:40.421Z,78.02
2018-06-14T07:11:50.249Z,77.92
2018-06-14T07:13:00.424Z,78.02
2018-06-14T07:14:10.505Z,78.06
2018-06-14T07:15:20.596Z,78.02
2018-06-14T07:16:30.416Z,78.02
2018-06-14T07:17:40.509Z,78.02
2018-06-14T07:18:50.590Z,77.92
2018-06-14T07:20:00.406Z,77.92
2018-06-14T07:21:10.209Z,78.06
2018-06-14T07:22:20.021Z,78.15
2018-06-14T07:23:30.098Z,78.06
2018-06-14T07:24:40.167Z,77.96
2018-06-14T07:25:50.244Z,78.15
2018-06-14T07:27:00.320Z,77.86
2018-06-14T07:28:10.440Z,78.15
2018-06-14T07:29:20.267Z,77.48
2018-06-14T07:30:30.343Z,77.76
2018-06-14T07:31:40.150Z,77.58
2018-06-14T07:32:50.228Z,77.48
2018-06-14T07:34:00.360Z,77.38
2018-06-14T07:35:10.155Z,77.67
2018-06-14T07:36:20.246Z,77.71
2018-06-14T07:37:30.337Z,77.23
2018-06-14T07:38:40.150Z,77.42
2018-06-14T07:39:49.717Z,77.13
2018-06-14T07:40:59.537Z,77.13
2018-06-14T07:42:09.614Z,76.59
2018-06-14T07:43:19.185Z,76.68
2018-06-14T07:44:29.018Z,76.88
2018-06-14T07:45:39.107Z,76.88
2018-06-14T07:46:49.181Z,76.53
2018-06-14T07:47:59.005Z,76.72
2018-06-14T07:49:09.094Z,76.05
2018-06-14T07:50:19.179Z,76.24
2018-06-14T07:51:29.324Z,76.34
2018-06-14T07:52:39.411Z,75.6
2018-06-14T07:53:49.237Z,75.79
2018-06-14T07:54:59.343Z,75.6
2018-06-14T07:56:09.408Z,75.64
2018-06-14T07:57:19.485Z,75.26
2018-06-14T07:58:29.563Z,75.26
2018-06-14T07:59:39.652Z,74.96
2018-06-14T08:00:49.486Z,75
2018-06-14T08:01:59.593Z,75.1
2018-06-14T08:03:09.668Z,75.1
2018-06-14T08:04:19.502Z,74.94
2018-06-14T08:05:29.591Z,74.94
2018-06-14T08:06:39.564Z,74.94
2018-06-14T08:07:49.679Z,74.94
2018-06-14T08:09:14.444Z,74.94
2018-06-14T08:10:24.529Z,75.04
2018-06-14T08:11:34.615Z,74.94
2018-06-14T08:12:44.597Z,75.33
2018-06-14T08:13:54.585Z,75.04
2018-06-14T08:15:04.691Z,75.04
2018-06-14T08:16:14.508Z,74.94
2018-06-14T08:17:24.593Z,75.23
2018-06-14T08:18:34.409Z,75.13
2018-06-14T08:19:44.512Z,74.94
2018-06-14T08:20:54.606Z,75.27
2018-06-14T08:22:04.679Z,74.98
2018-06-14T08:23:14.540Z,74.69
2018-06-14T08:24:24.620Z,74.59
2018-06-14T08:25:34.699Z,74.49
2018-06-14T08:26:44.793Z,74.53
2018-06-14T08:27:54.895Z,74.63
2018-06-14T08:29:05.031Z,74.05
2018-06-14T08:30:14.851Z,73.95
2018-06-14T08:31:24.943Z,74.57
2018-06-14T08:32:35.270Z,74.18
2018-06-14T08:33:45.100Z,74.38
2018-06-14T08:34:55.211Z,74.18
2018-06-14T08:36:05.318Z,74.08
2018-06-14T08:37:15.462Z,74.38
2018-06-14T08:38:25.662Z,74.76
2018-06-14T08:39:35.752Z,74.76
2018-06-14T08:40:45.965Z,74.57
2018-06-14T08:41:56.080Z,74.66
2018-06-14T08:43:05.924Z,74.96
2018-06-14T08:44:15.749Z,74.18
2018-06-14T08:45:25.856Z,73.99
2018-06-14T08:46:35.961Z,74.22
2018-06-14T08:47:45.767Z,73.93
2018-06-14T08:48:55.334Z,74.06
2018-06-14T08:50:05.653Z,73.58
2018-06-14T08:51:16.072Z,73.8
2018-06-14T08:52:26.215Z,73.94
2018-06-14T08:53:36.101Z,73.74
2018-06-14T08:54:46.223Z,74.04
2018-06-14T08:55:56.319Z,73.65
2018-06-14T08:57:06.413Z,73.65
2018-06-14T08:58:16.305Z,74.23
2018-06-14T08:59:26.397Z,74.52
2018-06-14T09:00:36.344Z,74.23
2018-06-14T09:01:46.452Z,73.84
2018-06-14T09:02:56.547Z,74.19
2018-06-14T09:04:06.740Z,74
2018-06-14T09:05:16.819Z,74.29
2018-06-14T09:06:26.895Z,74.49
2018-06-14T09:07:36.982Z,74.49
2018-06-14T09:08:47.061Z,74.49
2018-06-14T09:09:57.227Z,74.29
2018-06-14T09:11:07.333Z,74.1
2018-06-14T09:12:17.469Z,74.29
2018-06-14T09:13:27.568Z,74.87
2018-06-14T09:14:37.663Z,74.93
2018-06-14T09:15:47.772Z,74.77
2018-06-14T09:16:57.595Z,74.1
2018-06-14T09:18:07.668Z,74.39
2018-06-14T09:19:17.757Z,74.49
2018-06-14T09:20:27.837Z,74.58
2018-06-14T09:21:37.929Z,73.74
2018-06-14T09:22:48.026Z,74.37
2018-06-14T09:23:57.900Z,74.46
2018-06-14T09:25:08.028Z,74.27
2018-06-14T09:26:18.123Z,74.27
2018-06-14T09:27:28.211Z,73.72
2018-06-14T09:28:38.302Z,73.82
2018-06-14T09:29:48.401Z,73.66
2018-06-14T09:30:58.552Z,73.46
2018-06-14T09:32:08.632Z,73.56
2018-06-14T09:33:18.501Z,73.66
2018-06-14T09:34:28.682Z,74.05
2018-06-14T09:35:38.757Z,73.95
2018-06-14T09:36:49.038Z,74.34
2018-06-14T09:37:58.856Z,74.15
2018-06-14T09:39:08.670Z,74.6
2018-06-14T09:40:18.743Z,74.21
2018-06-14T09:41:28.841Z,74.75
2018-06-14T09:42:38.952Z,74.75
2018-06-14T09:43:48.945Z,75.34
2018-06-14T09:44:59.052Z,75.1
2018-06-14T09:46:09.138Z,75.2
2018-06-14T09:47:19.230Z,75.3
2018-06-14T09:48:29.058Z,74.91
2018-06-14T09:49:39.141Z,75.2
2018-06-14T09:50:49.236Z,75.49
2018-06-14T09:51:59.079Z,74.62
2018-06-14T09:53:09.150Z,74.62
2018-06-14T09:54:19.241Z,74.71
2018-06-14T09:55:28.791Z,74.81
2018-06-14T09:56:38.908Z,75.01
2018-06-14T09:57:49.001Z,74.23
2018-06-14T09:58:59.303Z,74.27
2018-06-14T10:00:09.668Z,74.13
2018-06-14T10:01:19.796Z,74.56
2018-06-14T10:02:29.899Z,74.37
2018-06-14T10:03:39.979Z,74.46
2018-06-14T10:04:50.073Z,74.27
2018-06-14T10:06:00.179Z,74.56
2018-06-14T10:07:10.516Z,74.62
2018-06-14T10:08:20.591Z,74.37
2018-06-14T10:09:30.414Z,74.23
2018-06-14T10:10:40.737Z,74.27
2018-06-14T10:11:50.808Z,74.43
2018-06-14T10:13:00.898Z,74.23
2018-06-14T10:14:10.982Z,74.04
2018-06-14T10:15:21.097Z,74.23
2018-06-14T10:16:30.967Z,74.43
2018-06-14T10:17:40.804Z,74.81
2018-06-14T10:18:50.747Z,74.23
2018-06-14T10:20:00.834Z,75.1
2018-06-14T10:21:10.655Z,75.01
2018-06-14T10:22:20.800Z,75.36
2018-06-14T10:23:30.627Z,75.26
2018-06-14T10:24:40.709Z,75.45
2018-06-14T10:25:50.795Z,75.51
2018-06-14T10:27:00.872Z,75.32
2018-06-14T10:28:10.991Z,75.32
2018-06-14T10:29:20.823Z,76.19
2018-06-14T10:30:31.436Z,75.87
2018-06-14T10:31:41.306Z,76.35
2018-06-14T10:32:51.388Z,76.79
2018-06-14T10:34:01.477Z,76.99
2018-06-14T10:35:11.613Z,76.79
2018-06-14T10:36:21.695Z,76.95
2018-06-14T10:37:31.528Z,76.46
2018-06-14T10:38:41.591Z,76.51
2018-06-14T10:39:51.666Z,76.41
2018-06-14T10:41:01.763Z,76.79
2018-06-14T10:42:11.854Z,76.41
2018-06-14T10:43:21.936Z,77.14
2018-06-14T10:44:32.190Z,77.69
2018-06-14T10:45:41.499Z,77.78
2018-06-14T10:46:51.579Z,78.33
2018-06-14T10:48:01.657Z,78.77
2018-06-14T10:49:11.748Z,79.12
2018-06-14T10:50:21.838Z,78.92
2018-06-14T10:51:31.930Z,79.41
2018-06-14T10:52:42.010Z,78.99
2018-06-14T10:53:51.821Z,79.17
2018-06-14T10:55:01.375Z,79.47
2018-06-14T10:56:11.468Z,79.17
2018-06-14T10:57:21.559Z,79.33
2018-06-14T10:58:31.678Z,79.72
2018-06-14T10:59:41.788Z,78.75
2018-06-14T11:00:51.620Z,78.66
2018-06-14T11:02:01.711Z,78.21
2018-06-14T11:03:11.796Z,77.96
2018-06-14T11:04:21.936Z,77.67
2018-06-14T11:05:32.020Z,76.55
2018-06-14T11:06:42.124Z,76.55
2018-06-14T11:07:52.216Z,77.03
2018-06-14T11:09:01.767Z,77.32
2018-06-14T11:10:11.629Z,77.86
2018-06-14T11:11:21.707Z,78.25
2018-06-14T11:12:31.797Z,78.41
2018-06-14T11:13:41.869Z,78.02
2018-06-14T11:14:51.958Z,78.21
2018-06-14T11:16:01.767Z,78.89
2018-06-14T11:17:11.582Z,78.59
2018-06-14T11:18:21.659Z,78.41
2018-06-14T11:19:31.477Z,78.66
2018-06-14T11:20:41.557Z,78.75
2018-06-14T11:21:51.384Z,78.66
2018-06-14T11:23:01.228Z,78.66
2018-06-14T11:24:11.375Z,78.66
2018-06-14T11:25:21.463Z,78.27
2018-06-14T11:26:31.011Z,78.75
2018-06-14T11:27:40.873Z,77.88
2018-06-14T11:28:51.013Z,77.98
2018-06-14T11:30:00.970Z,78.17
2018-06-14T11:31:11.367Z,78.17
2018-06-14T11:32:21.214Z,77.78
2018-06-14T11:33:31.090Z,77.88
2018-06-14T11:34:41.163Z,78.59
2018-06-14T11:35:51.276Z,78.02
2018-06-14T11:37:01.359Z,78.27
2018-06-14T11:38:11.432Z,78.08
2018-06-14T11:39:21.531Z,77.98
2018-06-14T11:40:31.637Z,77.98
2018-06-14T11:41:41.467Z,78.36
2018-06-14T11:42:51.271Z,78.59
2018-06-14T11:44:01.372Z,77.83
2018-06-14T11:45:11.246Z,76.7
2018-06-14T11:46:21.331Z,76.7
2018-06-14T11:47:31.425Z,76.64
2018-06-14T11:48:41.256Z,76.39
2018-06-14T11:49:50.827Z,76.01
2018-06-14T11:51:00.707Z,76.04
2018-06-14T11:52:10.549Z,76.04
2018-06-14T11:53:20.629Z,75.75
2018-06-14T11:54:30.459Z,76.24
2018-06-14T11:55:40.535Z,76.14
2018-06-14T11:56:50.649Z,76.53
2018-06-14T11:58:00.752Z,76.33
2018-06-14T11:59:10.848Z,76.62
2018-06-14T12:00:20.926Z,77.3
2018-06-14T12:01:31.000Z,77.4
2018-06-14T12:02:41.117Z,77.26
2018-06-14T12:03:51.209Z,78.13
2018-06-14T12:05:01.300Z,77.8
2018-06-14T12:06:11.395Z,78
2018-06-14T12:07:21.471Z,77.71
2018-06-14T12:08:31.654Z,77.75
2018-06-14T12:09:41.753Z,77.84
2018-06-14T12:10:51.836Z,76.68
2018-06-14T12:12:01.927Z,77.11
2018-06-14T12:13:12.315Z,76.14
2018-06-14T12:14:22.419Z,76.14
2018-06-14T12:15:32.235Z,76.28
2018-06-14T12:16:42.040Z,76.08
2018-06-14T12:17:52.162Z,76.66
2018-06-14T12:19:01.988Z,76.28
2018-06-14T12:20:12.802Z,76.66
2018-06-14T12:21:26.268Z,76.76
2018-06-14T12:22:37.471Z,76.95
2018-06-14T12:23:47.287Z,76.37
2018-06-14T12:24:57.432Z,76.37
2018-06-14T12:26:07.306Z,76.12
2018-06-14T12:27:17.419Z,76.02
2018-06-14T12:28:27.522Z,75.38
2018-06-14T12:29:37.618Z,75.19
2018-06-14T12:30:47.466Z,75.28
2018-06-14T12:31:57.567Z,75.96
2018-06-14T12:33:07.646Z,75.96
2018-06-14T12:34:17.739Z,76.45
2018-06-14T12:35:27.860Z,76.45
2018-06-14T12:36:38.000Z,76.6
2018-06-14T12:37:48.163Z,76.6
2018-06-14T12:38:58.316Z,76.79
2018-06-14T12:40:08.151Z,76.6
2018-06-14T12:41:18.242Z,76.7
2018-06-14T12:42:28.388Z,76.79
2018-06-14T12:43:38.483Z,76.41
2018-06-14T12:44:48.561Z,76.31
2018-06-14T12:45:58.639Z,76.51
2018-06-14T12:47:08.724Z,76.51
2018-06-14T12:48:18.892Z,76.35
2018-06-14T12:49:28.983Z,76.54
2018-06-14T12:50:39.074Z,76.31
2018-06-14T12:51:49.156Z,76.35
2018-06-14T12:52:59.260Z,76.74
2018-06-14T12:54:09.367Z,76.64
2018-06-14T12:55:19.210Z,77.28
2018-06-14T12:56:29.321Z,76.99
2018-06-14T12:57:39.434Z,76.99
2018-06-14T12:58:49.268Z,77.57
2018-06-14T12:59:59.367Z,77.37
2018-06-14T13:01:09.487Z,77.53
2018-06-14T13:02:19.600Z,77.34
2018-06-14T13:03:29.414Z,76.95
2018-06-14T13:04:39.491Z,77.09
2018-06-14T13:05:49.591Z,76.7
2018-06-14T13:06:59.714Z,76.51
2018-06-14T13:08:09.822Z,76.06
2018-06-14T13:09:19.899Z,76.06
2018-06-14T13:10:29.980Z,75.9
2018-06-14T13:11:40.117Z,75.9
2018-06-14T13:12:50.216Z,75.71
2018-06-14T13:14:00.300Z,76.1
2018-06-14T13:15:10.135Z,75.9
2018-06-14T13:16:19.713Z,75.9
2018-06-14T13:17:29.578Z,75.9
2018-06-14T13:18:39.270Z,76.48
2018-06-14T13:19:49.380Z,76.39
2018-06-14T13:20:59.466Z,76.54
2018-06-14T13:22:09.291Z,76.83
2018-06-14T13:23:19.439Z,76.74
2018-06-14T13:24:29.518Z,76.48
2018-06-14T13:25:39.613Z,76.45
2018-06-14T13:26:49.472Z,76.25
2018-06-14T13:27:59.573Z,76.25
2018-06-14T13:29:09.677Z,76.25
2018-06-14T13:30:19.761Z,76.74
2018-06-14T13:31:29.834Z,77.32
2018-06-14T13:32:39.917Z,76.83
2018-06-14T13:33:49.466Z,77.37
2018-06-14T13:34:59.299Z,78.02
2018-06-14T13:36:09.399Z,77.82
2018-06-14T13:37:19.507Z,78.21
2018-06-14T13:46:31.358Z,78.81
2018-06-14T13:47:41.212Z,78.87
2018-06-14T13:48:51.565Z,78.77
2018-06-14T13:50:02.017Z,78.87
2018-06-14T13:51:12.105Z,78.48
2018-06-14T13:52:22.199Z,78.77
2018-06-14T13:53:32.293Z,78.09
2018-06-14T13:54:42.356Z,78.09
2018-06-14T13:55:52.463Z,77.9
2018-06-14T13:57:02.378Z,78
2018-06-14T13:58:12.549Z,78
2018-06-14T13:59:22.618Z,78.29
2018-06-14T14:00:32.739Z,78.33
2018-06-14T14:01:42.826Z,77.94
2018-06-14T14:02:52.913Z,77.94
2018-06-14T14:04:03.015Z,77.65
2018-06-14T14:05:12.564Z,77.78
2018-06-14T14:06:22.398Z,77.94
2018-06-14T14:07:32.714Z,77.84
2018-06-14T14:08:42.605Z,78.23
2018-06-14T14:09:52.801Z,78.13
2018-06-14T14:11:02.629Z,78.67
2018-06-14T14:12:12.713Z,78.77
2018-06-14T14:13:22.518Z,78.67
2018-06-14T14:14:32.713Z,78.87
2018-06-14T14:15:43.041Z,78.96
2018-06-14T14:16:52.787Z,79.12
2018-06-14T14:18:02.957Z,78.92
2018-06-14T14:19:12.787Z,79.02
2018-06-14T14:20:22.358Z,79.22
2018-06-14T14:21:32.439Z,78.92
2018-06-14T14:22:42.520Z,78.83
2018-06-14T14:23:52.694Z,78.73
2018-06-14T14:25:02.928Z,78.64
2018-06-14T14:26:12.995Z,78.64
2018-06-14T14:27:22.548Z,78.73
2018-06-14T14:28:32.374Z,78.73
2018-06-14T14:29:42.186Z,78.44
2018-06-14T14:30:52.467Z,78.87
2018-06-14T14:32:02.559Z,78.19
2018-06-14T14:33:12.702Z,78.29
2018-06-14T14:34:22.805Z,78.13
2018-06-14T14:35:32.887Z,77.65
2018-06-14T14:36:42.737Z,77.78
2018-06-14T14:37:52.868Z,77.5
2018-06-14T14:39:02.787Z,77.11
2018-06-14T14:40:12.809Z,76.95
2018-06-14T14:41:22.915Z,76.56
2018-06-14T14:42:33.002Z,76.56
2018-06-14T14:43:42.826Z,76.79
2018-06-14T14:44:53.931Z,76.7
2018-06-14T14:46:04.021Z,76.21
2018-06-14T14:47:14.122Z,76.7
2018-06-14T14:48:24.304Z,77.09
2018-06-14T14:49:34.619Z,76.79
2018-06-14T14:50:44.776Z,77.19
2018-06-14T14:51:54.881Z,77.57
2018-06-14T14:53:05.113Z,77.53
2018-06-14T14:54:15.491Z,77.82
2018-06-14T14:55:25.596Z,78.5
2018-06-14T14:56:35.709Z,78.27
2018-06-14T14:57:45.872Z,78.27
2018-06-14T14:58:55.692Z,79.04
2018-06-14T15:00:05.265Z,79.14
2018-06-14T15:01:15.353Z,79.33
2018-06-14T15:02:25.437Z,79.2
2018-06-14T15:03:35.532Z,78.91
2018-06-14T15:04:45.598Z,78.81
2018-06-14T15:05:55.699Z,78.91
2018-06-14T15:07:05.776Z,78.81
2018-06-14T15:08:15.870Z,79
2018-06-14T15:09:25.970Z,78.96
2018-06-14T15:10:36.065Z,78.96
2018-06-14T15:11:46.150Z,79
2018-06-14T15:12:55.984Z,78.67
2018-06-14T15:14:06.130Z,78.67
2018-06-14T15:15:16.353Z,78.87
2018-06-14T15:16:26.203Z,79.06
2018-06-14T15:17:36.018Z,78.77
2018-06-14T15:18:45.918Z,79.25
2018-06-14T15:19:56.082Z,79.1
2018-06-14T15:21:06.193Z,79.29
2018-06-14T15:22:16.307Z,79.29
2018-06-14T15:23:26.416Z,79.39
2018-06-14T15:24:36.515Z,79.29
2018-06-14T15:25:46.638Z,79.29
2018-06-14T15:26:56.781Z,79.29
2018-06-14T15:28:06.872Z,78.71
2018-06-14T15:29:16.986Z,78.81
2018-06-14T15:30:27.070Z,79.04
2018-06-14T15:31:37.409Z,78.61
2018-06-14T15:32:47.519Z,78.75
2018-06-14T15:33:57.361Z,78.85
2018-06-14T15:35:07.503Z,78.94
2018-06-14T15:36:17.622Z,78.75
2018-06-14T15:37:27.512Z,78.75
2018-06-14T15:38:37.642Z,78.75
2018-06-14T15:39:47.781Z,78.94
2018-06-14T15:40:57.887Z,79.14
2018-06-14T15:42:07.764Z,79.1
2018-06-14T15:43:18.092Z,79.2
2018-06-14T15:44:28.017Z,79.1